sensor_id;sensor_type;location;lat;lon;timestamp;P1;durP1;ratioP1;P2;durP2;ratioP2
9007;SDS011;62813;51.424;6.762;2023-10-19T00:01:16;8.10;;;7.00;;
9007;SDS011;62813;51.424;6.762;2023-10-19T00:03:44;9.00;;;6.60;;
9007;SDS011;62813;51.424;6.762;2023-10-19T00:06:11;9.07;;;7.00;;
9007;SDS011;62813;51.424;6.762;2023-10-19T00:08:38;10.17;;;7.10;;
9007;SDS011;62813;51.424;6.762;2023-10-19T00:11:08;8.80;;;6.90;;
9007;SDS011;62813;51.424;6.762;2023-10-19T00:13:36;8.20;;;7.33;;
9007;SDS011;62813;51.424;6.762;2023-10-19T00:16:09;7.50;;;6.70;;
9007;SDS011;62813;51.424;6.762;2023-10-19T00:18:44;8.00;;;7.00;;
9007;SDS011;62813;51.424;6.762;2023-10-19T00:21:10;7.90;;;6.93;;
9007;SDS011;62813;51.424;6.762;2023-10-19T00:23:51;8.07;;;7.27;;
9007;SDS011;62813;51.424;6.762;2023-10-19T00:26:23;10.27;;;6.87;;
9007;SDS011;62813;51.424;6.762;2023-10-19T00:28:56;7.50;;;6.33;;
9007;SDS011;62813;51.424;6.762;2023-10-19T00:31:24;8.33;;;6.80;;
9007;SDS011;62813;51.424;6.762;2023-10-19T00:33:55;8.23;;;6.90;;
9007;SDS011;62813;51.424;6.762;2023-10-19T00:36:22;7.50;;;6.57;;
9007;SDS011;62813;51.424;6.762;2023-10-19T00:38:49;7.73;;;6.77;;
9007;SDS011;62813;51.424;6.762;2023-10-19T00:41:18;11.07;;;7.77;;
9007;SDS011;62813;51.424;6.762;2023-10-19T00:43:54;8.77;;;7.27;;
9007;SDS011;62813;51.424;6.762;2023-10-19T00:46:24;8.57;;;7.37;;
9007;SDS011;62813;51.424;6.762;2023-10-19T00:48:59;8.93;;;7.43;;
9007;SDS011;62813;51.424;6.762;2023-10-19T00:51:38;8.40;;;7.50;;
9007;SDS011;62813;51.424;6.762;2023-10-19T00:54:16;8.57;;;7.17;;
9007;SDS011;62813;51.424;6.762;2023-10-19T00:56:53;9.27;;;7.70;;
9007;SDS011;62813;51.424;6.762;2023-10-19T00:59:22;11.00;;;8.70;;
9007;SDS011;62813;51.424;6.762;2023-10-19T01:01:56;12.97;;;8.50;;
9007;SDS011;62813;51.424;6.762;2023-10-19T01:04:44;9.07;;;8.20;;
9007;SDS011;62813;51.424;6.762;2023-10-19T01:07:17;10.63;;;8.27;;
9007;SDS011;62813;51.424;6.762;2023-10-19T01:09:57;10.23;;;7.80;;
9007;SDS011;62813;51.424;6.762;2023-10-19T01:12:26;9.53;;;8.37;;
9007;SDS011;62813;51.424;6.762;2023-10-19T01:17:29;10.27;;;8.33;;
9007;SDS011;62813;51.424;6.762;2023-10-19T01:19:57;9.60;;;8.60;;
9007;SDS011;62813;51.424;6.762;2023-10-19T01:22:25;9.03;;;8.13;;
9007;SDS011;62813;51.424;6.762;2023-10-19T01:24:53;10.20;;;7.60;;
9007;SDS011;62813;51.424;6.762;2023-10-19T01:27:21;10.17;;;9.10;;
9007;SDS011;62813;51.424;6.762;2023-10-19T01:29:48;9.27;;;8.37;;
9007;SDS011;62813;51.424;6.762;2023-10-19T01:32:28;11.73;;;9.07;;
9007;SDS011;62813;51.424;6.762;2023-10-19T01:34:55;9.60;;;8.43;;
9007;SDS011;62813;51.424;6.762;2023-10-19T01:37:22;10.03;;;7.93;;
9007;SDS011;62813;51.424;6.762;2023-10-19T01:39:48;9.63;;;8.63;;
9007;SDS011;62813;51.424;6.762;2023-10-19T01:42:15;9.53;;;8.53;;
9007;SDS011;62813;51.424;6.762;2023-10-19T01:44:43;9.03;;;8.13;;
9007;SDS011;62813;51.424;6.762;2023-10-19T01:47:10;10.63;;;8.80;;
9007;SDS011;62813;51.424;6.762;2023-10-19T01:49:37;12.33;;;9.50;;
9007;SDS011;62813;51.424;6.762;2023-10-19T01:52:04;12.77;;;9.17;;
9007;SDS011;62813;51.424;6.762;2023-10-19T01:54:30;11.53;;;9.60;;
9007;SDS011;62813;51.424;6.762;2023-10-19T01:56:57;11.53;;;9.00;;
9007;SDS011;62813;51.424;6.762;2023-10-19T01:59:25;9.93;;;8.57;;
9007;SDS011;62813;51.424;6.762;2023-10-19T02:01:54;10.17;;;9.13;;
9007;SDS011;62813;51.424;6.762;2023-10-19T02:04:21;10.03;;;8.90;;
9007;SDS011;62813;51.424;6.762;2023-10-19T02:06:48;10.97;;;9.57;;
9007;SDS011;62813;51.424;6.762;2023-10-19T02:09:18;9.27;;;8.13;;
9007;SDS011;62813;51.424;6.762;2023-10-19T02:11:50;9.63;;;8.63;;
9007;SDS011;62813;51.424;6.762;2023-10-19T02:14:19;9.43;;;8.30;;
9007;SDS011;62813;51.424;6.762;2023-10-19T02:16:50;11.60;;;8.67;;
9007;SDS011;62813;51.424;6.762;2023-10-19T02:19:20;11.73;;;8.33;;
9007;SDS011;62813;51.424;6.762;2023-10-19T02:21:48;10.07;;;8.27;;
9007;SDS011;62813;51.424;6.762;2023-10-19T02:24:19;9.53;;;8.50;;
9007;SDS011;62813;51.424;6.762;2023-10-19T02:26:50;11.03;;;8.20;;
9007;SDS011;62813;51.424;6.762;2023-10-19T02:29:19;10.07;;;8.27;;
9007;SDS011;62813;51.424;6.762;2023-10-19T02:31:48;8.33;;;7.43;;
9007;SDS011;62813;51.424;6.762;2023-10-19T02:34:16;10.20;;;8.33;;
9007;SDS011;62813;51.424;6.762;2023-10-19T02:36:43;8.40;;;7.23;;
9007;SDS011;62813;51.424;6.762;2023-10-19T02:39:12;9.00;;;8.10;;
9007;SDS011;62813;51.424;6.762;2023-10-19T02:41:47;10.23;;;8.07;;
9007;SDS011;62813;51.424;6.762;2023-10-19T02:44:18;9.13;;;7.43;;
9007;SDS011;62813;51.424;6.762;2023-10-19T02:46:52;9.13;;;6.93;;
9007;SDS011;62813;51.424;6.762;2023-10-19T02:49:27;8.07;;;6.73;;
9007;SDS011;62813;51.424;6.762;2023-10-19T02:51:56;8.43;;;6.63;;
9007;SDS011;62813;51.424;6.762;2023-10-19T02:54:29;8.30;;;6.60;;
9007;SDS011;62813;51.424;6.762;2023-10-19T02:56:59;7.70;;;6.90;;
9007;SDS011;62813;51.424;6.762;2023-10-19T02:59:27;9.90;;;6.33;;
9007;SDS011;62813;51.424;6.762;2023-10-19T03:01:59;8.93;;;6.03;;
9007;SDS011;62813;51.424;6.762;2023-10-19T03:04:39;7.43;;;5.67;;
9007;SDS011;62813;51.424;6.762;2023-10-19T03:07:07;8.43;;;5.73;;
9007;SDS011;62813;51.424;6.762;2023-10-19T03:09:34;8.57;;;5.87;;
9007;SDS011;62813;51.424;6.762;2023-10-19T03:12:03;6.70;;;5.30;;
9007;SDS011;62813;51.424;6.762;2023-10-19T03:14:31;8.37;;;5.33;;
9007;SDS011;62813;51.424;6.762;2023-10-19T03:16:59;9.43;;;5.90;;
9007;SDS011;62813;51.424;6.762;2023-10-19T03:19:27;6.83;;;5.50;;
9007;SDS011;62813;51.424;6.762;2023-10-19T03:21:54;7.70;;;6.30;;
9007;SDS011;62813;51.424;6.762;2023-10-19T03:24:22;6.60;;;5.77;;
9007;SDS011;62813;51.424;6.762;2023-10-19T03:26:50;6.60;;;5.50;;
9007;SDS011;62813;51.424;6.762;2023-10-19T03:29:17;7.17;;;5.13;;
9007;SDS011;62813;51.424;6.762;2023-10-19T03:31:52;8.60;;;5.90;;
9007;SDS011;62813;51.424;6.762;2023-10-19T03:34:19;6.07;;;5.47;;
9007;SDS011;62813;51.424;6.762;2023-10-19T03:36:50;8.50;;;5.80;;
9007;SDS011;62813;51.424;6.762;2023-10-19T03:39:17;8.60;;;5.60;;
9007;SDS011;62813;51.424;6.762;2023-10-19T03:41:44;8.93;;;6.70;;
9007;SDS011;62813;51.424;6.762;2023-10-19T03:44:11;15.40;;;12.07;;
9007;SDS011;62813;51.424;6.762;2023-10-19T03:47:07;17.17;;;12.43;;
9007;SDS011;62813;51.424;6.762;2023-10-19T03:49:38;16.17;;;9.53;;
9007;SDS011;62813;51.424;6.762;2023-10-19T03:52:06;26.17;;;19.57;;
9007;SDS011;62813;51.424;6.762;2023-10-19T03:54:37;9.43;;;6.97;;
9007;SDS011;62813;51.424;6.762;2023-10-19T03:57:11;7.77;;;6.93;;
9007;SDS011;62813;51.424;6.762;2023-10-19T03:59:39;9.10;;;6.53;;
9007;SDS011;62813;51.424;6.762;2023-10-19T04:02:06;7.23;;;6.17;;
9007;SDS011;62813;51.424;6.762;2023-10-19T04:04:40;11.87;;;8.70;;
9007;SDS011;62813;51.424;6.762;2023-10-19T04:07:10;10.30;;;7.30;;
9007;SDS011;62813;51.424;6.762;2023-10-19T04:09:42;10.10;;;7.00;;
9007;SDS011;62813;51.424;6.762;2023-10-19T04:12:28;32.73;;;23.93;;
9007;SDS011;62813;51.424;6.762;2023-10-19T04:14:58;27.70;;;20.87;;
9007;SDS011;62813;51.424;6.762;2023-10-19T04:17:36;8.73;;;5.63;;
9007;SDS011;62813;51.424;6.762;2023-10-19T04:20:05;5.67;;;4.57;;
9007;SDS011;62813;51.424;6.762;2023-10-19T04:22:58;5.37;;;4.10;;
9007;SDS011;62813;51.424;6.762;2023-10-19T04:25:32;5.80;;;3.73;;
9007;SDS011;62813;51.424;6.762;2023-10-19T04:27:59;4.47;;;3.60;;
9007;SDS011;62813;51.424;6.762;2023-10-19T04:30:27;6.83;;;3.50;;
9007;SDS011;62813;51.424;6.762;2023-10-19T04:32:54;4.47;;;3.47;;
9007;SDS011;62813;51.424;6.762;2023-10-19T04:35:24;4.70;;;4.20;;
9007;SDS011;62813;51.424;6.762;2023-10-19T04:37:56;5.97;;;3.70;;
9007;SDS011;62813;51.424;6.762;2023-10-19T04:40:23;6.03;;;4.13;;
9007;SDS011;62813;51.424;6.762;2023-10-19T04:42:51;6.23;;;4.10;;
9007;SDS011;62813;51.424;6.762;2023-10-19T04:45:18;6.73;;;3.80;;
9007;SDS011;62813;51.424;6.762;2023-10-19T04:47:44;7.43;;;4.23;;
9007;SDS011;62813;51.424;6.762;2023-10-19T04:50:13;5.40;;;4.00;;
9007;SDS011;62813;51.424;6.762;2023-10-19T04:52:40;5.30;;;3.67;;
9007;SDS011;62813;51.424;6.762;2023-10-19T04:55:07;4.93;;;4.00;;
9007;SDS011;62813;51.424;6.762;2023-10-19T04:57:34;5.17;;;3.97;;
9007;SDS011;62813;51.424;6.762;2023-10-19T05:00:01;5.20;;;4.03;;
9007;SDS011;62813;51.424;6.762;2023-10-19T05:02:29;7.23;;;3.97;;
9007;SDS011;62813;51.424;6.762;2023-10-19T05:04:56;7.47;;;4.23;;
9007;SDS011;62813;51.424;6.762;2023-10-19T05:07:23;5.37;;;4.27;;
9007;SDS011;62813;51.424;6.762;2023-10-19T05:09:50;4.60;;;3.57;;
9007;SDS011;62813;51.424;6.762;2023-10-19T05:12:16;15.63;;;10.80;;
9007;SDS011;62813;51.424;6.762;2023-10-19T05:14:43;11.70;;;9.03;;
9007;SDS011;62813;51.424;6.762;2023-10-19T05:17:10;5.10;;;4.40;;
9007;SDS011;62813;51.424;6.762;2023-10-19T05:19:37;6.10;;;4.50;;
9007;SDS011;62813;51.424;6.762;2023-10-19T05:22:06;6.80;;;4.30;;
9007;SDS011;62813;51.424;6.762;2023-10-19T05:24:34;8.40;;;5.03;;
9007;SDS011;62813;51.424;6.762;2023-10-19T05:27:01;7.97;;;4.97;;
9007;SDS011;62813;51.424;6.762;2023-10-19T05:29:30;7.80;;;4.57;;
9007;SDS011;62813;51.424;6.762;2023-10-19T05:31:59;8.80;;;4.93;;
9007;SDS011;62813;51.424;6.762;2023-10-19T05:34:27;4.93;;;4.23;;
9007;SDS011;62813;51.424;6.762;2023-10-19T05:36:56;8.03;;;4.50;;
9007;SDS011;62813;51.424;6.762;2023-10-19T05:39:25;8.40;;;5.33;;
9007;SDS011;62813;51.424;6.762;2023-10-19T05:41:55;6.23;;;4.93;;
9007;SDS011;62813;51.424;6.762;2023-10-19T05:44:22;7.20;;;4.80;;
9007;SDS011;62813;51.424;6.762;2023-10-19T05:46:51;5.93;;;4.33;;
9007;SDS011;62813;51.424;6.762;2023-10-19T05:49:18;12.23;;;4.67;;
9007;SDS011;62813;51.424;6.762;2023-10-19T05:51:46;6.67;;;4.20;;
9007;SDS011;62813;51.424;6.762;2023-10-19T05:54:12;9.47;;;5.13;;
9007;SDS011;62813;51.424;6.762;2023-10-19T05:56:39;7.57;;;5.90;;
9007;SDS011;62813;51.424;6.762;2023-10-19T05:59:06;10.70;;;7.70;;
9007;SDS011;62813;51.424;6.762;2023-10-19T06:01:33;7.47;;;5.33;;
9007;SDS011;62813;51.424;6.762;2023-10-19T06:04:00;9.13;;;5.13;;
9007;SDS011;62813;51.424;6.762;2023-10-19T06:06:26;9.00;;;5.10;;
9007;SDS011;62813;51.424;6.762;2023-10-19T06:08:54;8.07;;;4.80;;
9007;SDS011;62813;51.424;6.762;2023-10-19T06:11:20;7.00;;;4.83;;
9007;SDS011;62813;51.424;6.762;2023-10-19T06:13:48;8.27;;;4.93;;
9007;SDS011;62813;51.424;6.762;2023-10-19T06:16:14;7.73;;;4.70;;
9007;SDS011;62813;51.424;6.762;2023-10-19T06:18:42;5.93;;;4.77;;
9007;SDS011;62813;51.424;6.762;2023-10-19T06:21:10;5.90;;;4.73;;
9007;SDS011;62813;51.424;6.762;2023-10-19T06:23:38;5.80;;;4.27;;
9007;SDS011;62813;51.424;6.762;2023-10-19T06:26:08;8.83;;;4.80;;
9007;SDS011;62813;51.424;6.762;2023-10-19T06:28:38;7.67;;;4.90;;
9007;SDS011;62813;51.424;6.762;2023-10-19T06:31:07;7.23;;;4.97;;
9007;SDS011;62813;51.424;6.762;2023-10-19T06:33:35;7.00;;;5.10;;
9007;SDS011;62813;51.424;6.762;2023-10-19T06:36:08;8.53;;;5.43;;
9007;SDS011;62813;51.424;6.762;2023-10-19T06:38:35;7.17;;;5.20;;
9007;SDS011;62813;51.424;6.762;2023-10-19T06:41:20;8.23;;;4.90;;
9007;SDS011;62813;51.424;6.762;2023-10-19T06:43:48;5.70;;;4.57;;
9007;SDS011;62813;51.424;6.762;2023-10-19T06:46:16;6.17;;;4.77;;
9007;SDS011;62813;51.424;6.762;2023-10-19T06:48:45;6.87;;;4.47;;
9007;SDS011;62813;51.424;6.762;2023-10-19T06:51:13;6.80;;;4.50;;
9007;SDS011;62813;51.424;6.762;2023-10-19T06:53:39;9.63;;;5.20;;
9007;SDS011;62813;51.424;6.762;2023-10-19T06:56:07;9.53;;;5.20;;
9007;SDS011;62813;51.424;6.762;2023-10-19T06:58:34;5.77;;;4.53;;
9007;SDS011;62813;51.424;6.762;2023-10-19T07:01:01;5.97;;;4.63;;
9007;SDS011;62813;51.424;6.762;2023-10-19T07:03:34;6.67;;;4.50;;
9007;SDS011;62813;51.424;6.762;2023-10-19T07:06:00;7.47;;;4.50;;
9007;SDS011;62813;51.424;6.762;2023-10-19T07:08:34;5.30;;;4.60;;
9007;SDS011;62813;51.424;6.762;2023-10-19T07:11:01;4.77;;;4.27;;
9007;SDS011;62813;51.424;6.762;2023-10-19T07:13:27;6.70;;;5.17;;
9007;SDS011;62813;51.424;6.762;2023-10-19T07:15:55;45.53;;;33.03;;
9007;SDS011;62813;51.424;6.762;2023-10-19T07:18:22;11.17;;;7.90;;
9007;SDS011;62813;51.424;6.762;2023-10-19T07:20:49;7.43;;;5.67;;
9007;SDS011;62813;51.424;6.762;2023-10-19T07:23:16;8.67;;;5.27;;
9007;SDS011;62813;51.424;6.762;2023-10-19T07:25:49;6.77;;;5.20;;
9007;SDS011;62813;51.424;6.762;2023-10-19T07:28:21;6.97;;;5.57;;
9007;SDS011;62813;51.424;6.762;2023-10-19T07:30:49;10.83;;;8.60;;
9007;SDS011;62813;51.424;6.762;2023-10-19T07:33:18;17.40;;;12.40;;
9007;SDS011;62813;51.424;6.762;2023-10-19T07:35:46;10.07;;;7.80;;
9007;SDS011;62813;51.424;6.762;2023-10-19T07:38:14;7.60;;;6.13;;
9007;SDS011;62813;51.424;6.762;2023-10-19T07:40:41;7.73;;;5.77;;
9007;SDS011;62813;51.424;6.762;2023-10-19T07:43:08;8.13;;;5.77;;
9007;SDS011;62813;51.424;6.762;2023-10-19T07:45:35;6.90;;;4.60;;
9007;SDS011;62813;51.424;6.762;2023-10-19T07:48:03;8.70;;;5.67;;
9007;SDS011;62813;51.424;6.762;2023-10-19T07:50:34;6.43;;;5.37;;
9007;SDS011;62813;51.424;6.762;2023-10-19T07:53:02;5.83;;;5.03;;
9007;SDS011;62813;51.424;6.762;2023-10-19T07:55:29;11.20;;;5.83;;
9007;SDS011;62813;51.424;6.762;2023-10-19T07:57:58;6.93;;;5.57;;
9007;SDS011;62813;51.424;6.762;2023-10-19T08:00:33;8.60;;;5.30;;
9007;SDS011;62813;51.424;6.762;2023-10-19T08:03:02;6.67;;;5.53;;
9007;SDS011;62813;51.424;6.762;2023-10-19T08:05:31;10.13;;;5.43;;
9007;SDS011;62813;51.424;6.762;2023-10-19T08:07:58;5.57;;;5.00;;
9007;SDS011;62813;51.424;6.762;2023-10-19T08:10:27;7.20;;;5.20;;
9007;SDS011;62813;51.424;6.762;2023-10-19T08:12:54;10.80;;;5.77;;
9007;SDS011;62813;51.424;6.762;2023-10-19T08:15:22;9.97;;;5.80;;
9007;SDS011;62813;51.424;6.762;2023-10-19T08:17:49;7.60;;;5.10;;
9007;SDS011;62813;51.424;6.762;2023-10-19T08:20:17;8.73;;;5.60;;
9007;SDS011;62813;51.424;6.762;2023-10-19T08:22:52;9.87;;;8.20;;
9007;SDS011;62813;51.424;6.762;2023-10-19T08:25:20;14.33;;;9.93;;
9007;SDS011;62813;51.424;6.762;2023-10-19T08:27:48;10.17;;;7.13;;
9007;SDS011;62813;51.424;6.762;2023-10-19T08:30:17;9.63;;;5.83;;
9007;SDS011;62813;51.424;6.762;2023-10-19T08:32:47;7.97;;;4.93;;
9007;SDS011;62813;51.424;6.762;2023-10-19T08:35:18;6.60;;;4.87;;
9007;SDS011;62813;51.424;6.762;2023-10-19T08:37:52;7.63;;;4.83;;
9007;SDS011;62813;51.424;6.762;2023-10-19T08:40:20;9.40;;;4.33;;
9007;SDS011;62813;51.424;6.762;2023-10-19T08:42:50;6.03;;;4.70;;
9007;SDS011;62813;51.424;6.762;2023-10-19T08:45:17;8.20;;;4.70;;
9007;SDS011;62813;51.424;6.762;2023-10-19T08:47:47;5.73;;;4.57;;
9007;SDS011;62813;51.424;6.762;2023-10-19T08:50:20;7.83;;;4.53;;
9007;SDS011;62813;51.424;6.762;2023-10-19T08:52:53;7.40;;;5.00;;
9007;SDS011;62813;51.424;6.762;2023-10-19T08:55:21;7.50;;;4.40;;
9007;SDS011;62813;51.424;6.762;2023-10-19T08:58:06;5.43;;;4.00;;
9007;SDS011;62813;51.424;6.762;2023-10-19T09:00:54;5.87;;;4.37;;
9007;SDS011;62813;51.424;6.762;2023-10-19T09:03:22;8.80;;;4.97;;
9007;SDS011;62813;51.424;6.762;2023-10-19T09:05:52;5.97;;;4.23;;
9007;SDS011;62813;51.424;6.762;2023-10-19T09:08:19;5.63;;;4.23;;
9007;SDS011;62813;51.424;6.762;2023-10-19T09:10:49;9.90;;;4.53;;
9007;SDS011;62813;51.424;6.762;2023-10-19T09:13:18;11.30;;;4.00;;
9007;SDS011;62813;51.424;6.762;2023-10-19T09:15:46;7.57;;;4.57;;
9007;SDS011;62813;51.424;6.762;2023-10-19T09:20:48;5.30;;;3.70;;
9007;SDS011;62813;51.424;6.762;2023-10-19T09:23:24;6.33;;;4.17;;
9007;SDS011;62813;51.424;6.762;2023-10-19T09:25:55;7.63;;;3.93;;
9007;SDS011;62813;51.424;6.762;2023-10-19T09:28:23;8.93;;;3.60;;
9007;SDS011;62813;51.424;6.762;2023-10-19T09:30:52;7.77;;;3.43;;
9007;SDS011;62813;51.424;6.762;2023-10-19T09:33:20;7.00;;;3.50;;
9007;SDS011;62813;51.424;6.762;2023-10-19T09:35:48;5.87;;;3.33;;
9007;SDS011;62813;51.424;6.762;2023-10-19T09:38:17;11.60;;;4.67;;
9007;SDS011;62813;51.424;6.762;2023-10-19T09:40:54;5.60;;;3.50;;
9007;SDS011;62813;51.424;6.762;2023-10-19T09:43:37;4.53;;;3.30;;
9007;SDS011;62813;51.424;6.762;2023-10-19T09:46:08;6.57;;;4.20;;
9007;SDS011;62813;51.424;6.762;2023-10-19T09:48:41;7.83;;;2.80;;
9007;SDS011;62813;51.424;6.762;2023-10-19T09:51:12;7.40;;;3.17;;
9007;SDS011;62813;51.424;6.762;2023-10-19T09:53:43;4.13;;;2.43;;
9007;SDS011;62813;51.424;6.762;2023-10-19T09:56:16;7.17;;;2.87;;
9007;SDS011;62813;51.424;6.762;2023-10-19T09:58:49;6.50;;;2.53;;
9007;SDS011;62813;51.424;6.762;2023-10-19T10:01:19;6.80;;;2.70;;
9007;SDS011;62813;51.424;6.762;2023-10-19T10:03:49;5.87;;;2.40;;
9007;SDS011;62813;51.424;6.762;2023-10-19T10:06:16;6.33;;;2.53;;
9007;SDS011;62813;51.424;6.762;2023-10-19T10:08:56;8.10;;;2.53;;
9007;SDS011;62813;51.424;6.762;2023-10-19T10:11:26;5.63;;;2.57;;
9007;SDS011;62813;51.424;6.762;2023-10-19T10:13:54;5.77;;;2.57;;
9007;SDS011;62813;51.424;6.762;2023-10-19T10:16:24;9.90;;;2.70;;
9007;SDS011;62813;51.424;6.762;2023-10-19T10:18:58;7.27;;;2.20;;
9007;SDS011;62813;51.424;6.762;2023-10-19T10:21:26;9.33;;;2.27;;
9007;SDS011;62813;51.424;6.762;2023-10-19T10:23:57;8.83;;;2.67;;
9007;SDS011;62813;51.424;6.762;2023-10-19T10:26:27;7.20;;;2.37;;
9007;SDS011;62813;51.424;6.762;2023-10-19T10:29:22;6.83;;;2.00;;
9007;SDS011;62813;51.424;6.762;2023-10-19T10:31:50;6.37;;;2.07;;
9007;SDS011;62813;51.424;6.762;2023-10-19T10:37:11;8.27;;;2.30;;
9007;SDS011;62813;51.424;6.762;2023-10-19T10:39:40;5.53;;;2.10;;
9007;SDS011;62813;51.424;6.762;2023-10-19T10:42:08;9.57;;;2.43;;
9007;SDS011;62813;51.424;6.762;2023-10-19T10:44:44;6.87;;;1.97;;
9007;SDS011;62813;51.424;6.762;2023-10-19T10:52:29;8.67;;;2.03;;
9007;SDS011;62813;51.424;6.762;2023-10-19T10:55:07;8.97;;;2.37;;
9007;SDS011;62813;51.424;6.762;2023-10-19T10:57:38;6.30;;;2.13;;
9007;SDS011;62813;51.424;6.762;2023-10-19T11:00:09;7.87;;;2.30;;
9007;SDS011;62813;51.424;6.762;2023-10-19T11:02:43;6.63;;;2.13;;
9007;SDS011;62813;51.424;6.762;2023-10-19T11:05:13;8.40;;;2.23;;
9007;SDS011;62813;51.424;6.762;2023-10-19T11:07:41;8.70;;;2.30;;
9007;SDS011;62813;51.424;6.762;2023-10-19T11:10:28;7.83;;;2.40;;
9007;SDS011;62813;51.424;6.762;2023-10-19T11:13:02;9.60;;;2.30;;
9007;SDS011;62813;51.424;6.762;2023-10-19T11:15:30;6.63;;;2.30;;
9007;SDS011;62813;51.424;6.762;2023-10-19T11:17:56;7.57;;;2.10;;
9007;SDS011;62813;51.424;6.762;2023-10-19T11:20:24;6.37;;;2.07;;
9007;SDS011;62813;51.424;6.762;2023-10-19T11:22:52;6.83;;;2.53;;
9007;SDS011;62813;51.424;6.762;2023-10-19T11:27:59;9.10;;;2.50;;
9007;SDS011;62813;51.424;6.762;2023-10-19T11:30:28;10.13;;;2.70;;
9007;SDS011;62813;51.424;6.762;2023-10-19T11:32:58;6.70;;;2.40;;
9007;SDS011;62813;51.424;6.762;2023-10-19T11:35:28;7.70;;;2.60;;
9007;SDS011;62813;51.424;6.762;2023-10-19T11:37:57;8.03;;;2.13;;
9007;SDS011;62813;51.424;6.762;2023-10-19T11:40:29;5.50;;;1.83;;
9007;SDS011;62813;51.424;6.762;2023-10-19T11:42:55;12.00;;;4.90;;
9007;SDS011;62813;51.424;6.762;2023-10-19T11:45:27;7.53;;;3.43;;
9007;SDS011;62813;51.424;6.762;2023-10-19T11:47:55;6.20;;;3.00;;
9007;SDS011;62813;51.424;6.762;2023-10-19T11:50:23;8.40;;;2.83;;
9007;SDS011;62813;51.424;6.762;2023-10-19T11:52:51;9.33;;;2.63;;
9007;SDS011;62813;51.424;6.762;2023-10-19T11:55:19;8.33;;;2.47;;
9007;SDS011;62813;51.424;6.762;2023-10-19T11:57:47;4.10;;;2.10;;
9007;SDS011;62813;51.424;6.762;2023-10-19T12:00:14;7.13;;;2.50;;
9007;SDS011;62813;51.424;6.762;2023-10-19T12:03:00;8.50;;;2.53;;
9007;SDS011;62813;51.424;6.762;2023-10-19T12:05:27;6.43;;;2.37;;
9007;SDS011;62813;51.424;6.762;2023-10-19T12:07:53;6.67;;;2.60;;
9007;SDS011;62813;51.424;6.762;2023-10-19T12:10:20;6.57;;;2.27;;
9007;SDS011;62813;51.424;6.762;2023-10-19T12:12:52;13.40;;;4.27;;
9007;SDS011;62813;51.424;6.762;2023-10-19T12:15:27;7.17;;;2.70;;
9007;SDS011;62813;51.424;6.762;2023-10-19T12:17:54;8.50;;;2.37;;
9007;SDS011;62813;51.424;6.762;2023-10-19T12:20:21;9.13;;;2.53;;
9007;SDS011;62813;51.424;6.762;2023-10-19T12:22:51;7.77;;;2.30;;
9007;SDS011;62813;51.424;6.762;2023-10-19T12:25:22;4.97;;;1.93;;
9007;SDS011;62813;51.424;6.762;2023-10-19T12:28:08;6.13;;;1.90;;
9007;SDS011;62813;51.424;6.762;2023-10-19T12:30:42;7.43;;;2.20;;
9007;SDS011;62813;51.424;6.762;2023-10-19T12:33:09;9.20;;;2.23;;
9007;SDS011;62813;51.424;6.762;2023-10-19T12:35:40;8.57;;;2.40;;
9007;SDS011;62813;51.424;6.762;2023-10-19T12:38:23;6.37;;;1.90;;
9007;SDS011;62813;51.424;6.762;2023-10-19T12:40:51;6.50;;;1.87;;
9007;SDS011;62813;51.424;6.762;2023-10-19T12:43:18;5.13;;;2.13;;
9007;SDS011;62813;51.424;6.762;2023-10-19T12:45:45;6.30;;;2.27;;
9007;SDS011;62813;51.424;6.762;2023-10-19T12:48:17;7.13;;;2.27;;
9007;SDS011;62813;51.424;6.762;2023-10-19T12:50:44;6.63;;;2.63;;
9007;SDS011;62813;51.424;6.762;2023-10-19T12:53:10;8.17;;;2.23;;
9007;SDS011;62813;51.424;6.762;2023-10-19T12:55:37;8.87;;;3.10;;
9007;SDS011;62813;51.424;6.762;2023-10-19T12:58:04;12.53;;;3.30;;
9007;SDS011;62813;51.424;6.762;2023-10-19T13:00:36;15.90;;;3.23;;
9007;SDS011;62813;51.424;6.762;2023-10-19T13:03:07;11.63;;;3.43;;
9007;SDS011;62813;51.424;6.762;2023-10-19T13:05:35;4.07;;;2.13;;
9007;SDS011;62813;51.424;6.762;2023-10-19T13:08:13;6.83;;;2.27;;
9007;SDS011;62813;51.424;6.762;2023-10-19T13:10:40;5.80;;;2.00;;
9007;SDS011;62813;51.424;6.762;2023-10-19T13:13:12;4.33;;;1.87;;
9007;SDS011;62813;51.424;6.762;2023-10-19T13:15:42;9.67;;;2.40;;
9007;SDS011;62813;51.424;6.762;2023-10-19T13:18:11;6.13;;;1.77;;
9007;SDS011;62813;51.424;6.762;2023-10-19T13:20:54;5.83;;;1.80;;
9007;SDS011;62813;51.424;6.762;2023-10-19T13:23:23;9.67;;;3.10;;
9007;SDS011;62813;51.424;6.762;2023-10-19T13:25:50;9.33;;;3.60;;
9007;SDS011;62813;51.424;6.762;2023-10-19T13:28:20;7.27;;;3.10;;
9007;SDS011;62813;51.424;6.762;2023-10-19T13:33:16;7.27;;;3.17;;
9007;SDS011;62813;51.424;6.762;2023-10-19T13:35:45;9.37;;;2.90;;
9007;SDS011;62813;51.424;6.762;2023-10-19T13:38:12;9.63;;;3.00;;
9007;SDS011;62813;51.424;6.762;2023-10-19T13:40:40;7.10;;;2.70;;
9007;SDS011;62813;51.424;6.762;2023-10-19T13:43:09;11.40;;;2.43;;
9007;SDS011;62813;51.424;6.762;2023-10-19T13:45:41;10.47;;;2.70;;
9007;SDS011;62813;51.424;6.762;2023-10-19T13:48:09;5.97;;;2.27;;
9007;SDS011;62813;51.424;6.762;2023-10-19T13:50:45;9.40;;;2.40;;
9007;SDS011;62813;51.424;6.762;2023-10-19T13:53:18;13.17;;;6.87;;
9007;SDS011;62813;51.424;6.762;2023-10-19T13:55:44;11.50;;;7.27;;
9007;SDS011;62813;51.424;6.762;2023-10-19T13:58:12;7.37;;;3.00;;
9007;SDS011;62813;51.424;6.762;2023-10-19T14:00:41;6.67;;;2.50;;
9007;SDS011;62813;51.424;6.762;2023-10-19T14:03:13;8.60;;;2.57;;
9007;SDS011;62813;51.424;6.762;2023-10-19T14:05:41;8.77;;;2.47;;
9007;SDS011;62813;51.424;6.762;2023-10-19T14:08:09;9.20;;;2.70;;
9007;SDS011;62813;51.424;6.762;2023-10-19T14:10:37;3.83;;;1.90;;
9007;SDS011;62813;51.424;6.762;2023-10-19T14:13:04;6.37;;;2.23;;
9007;SDS011;62813;51.424;6.762;2023-10-19T14:15:31;7.37;;;2.70;;
9007;SDS011;62813;51.424;6.762;2023-10-19T14:18:00;8.97;;;2.43;;
9007;SDS011;62813;51.424;6.762;2023-10-19T14:20:30;9.20;;;3.10;;
9007;SDS011;62813;51.424;6.762;2023-10-19T14:22:58;8.70;;;2.53;;
9007;SDS011;62813;51.424;6.762;2023-10-19T14:25:25;10.77;;;3.00;;
9007;SDS011;62813;51.424;6.762;2023-10-19T14:27:53;6.67;;;2.40;;
9007;SDS011;62813;51.424;6.762;2023-10-19T14:30:28;7.30;;;2.40;;
9007;SDS011;62813;51.424;6.762;2023-10-19T14:32:55;8.37;;;2.53;;
9007;SDS011;62813;51.424;6.762;2023-10-19T14:35:23;11.60;;;3.07;;
9007;SDS011;62813;51.424;6.762;2023-10-19T14:37:52;9.80;;;2.50;;
9007;SDS011;62813;51.424;6.762;2023-10-19T14:40:26;6.57;;;2.40;;
9007;SDS011;62813;51.424;6.762;2023-10-19T14:42:55;6.33;;;2.17;;
9007;SDS011;62813;51.424;6.762;2023-10-19T14:45:24;7.70;;;3.97;;
9007;SDS011;62813;51.424;6.762;2023-10-19T14:47:52;17.60;;;9.87;;
9007;SDS011;62813;51.424;6.762;2023-10-19T14:50:28;7.37;;;3.20;;
9007;SDS011;62813;51.424;6.762;2023-10-19T14:52:55;7.50;;;2.90;;
9007;SDS011;62813;51.424;6.762;2023-10-19T14:55:22;12.63;;;2.53;;
9007;SDS011;62813;51.424;6.762;2023-10-19T14:57:50;5.90;;;2.50;;
9007;SDS011;62813;51.424;6.762;2023-10-19T15:00:22;5.87;;;2.50;;
9007;SDS011;62813;51.424;6.762;2023-10-19T15:03:01;8.57;;;2.50;;
9007;SDS011;62813;51.424;6.762;2023-10-19T15:05:34;9.80;;;3.00;;
9007;SDS011;62813;51.424;6.762;2023-10-19T15:08:02;7.07;;;2.73;;
9007;SDS011;62813;51.424;6.762;2023-10-19T15:10:34;5.30;;;2.20;;
9007;SDS011;62813;51.424;6.762;2023-10-19T15:13:06;8.50;;;2.40;;
9007;SDS011;62813;51.424;6.762;2023-10-19T15:15:32;8.87;;;2.10;;
9007;SDS011;62813;51.424;6.762;2023-10-19T15:17:59;6.70;;;2.20;;
9007;SDS011;62813;51.424;6.762;2023-10-19T15:20:27;5.67;;;2.70;;
9007;SDS011;62813;51.424;6.762;2023-10-19T15:22:54;5.60;;;2.30;;
9007;SDS011;62813;51.424;6.762;2023-10-19T15:25:22;5.10;;;2.07;;
9007;SDS011;62813;51.424;6.762;2023-10-19T15:27:53;10.80;;;3.07;;
9007;SDS011;62813;51.424;6.762;2023-10-19T15:30:20;9.13;;;3.30;;
9007;SDS011;62813;51.424;6.762;2023-10-19T15:32:50;9.10;;;3.17;;